KHON

Huron Regional Airport

Huron, South Dakota, USA
METAR KHON 230255Z AUTO 13005KT 10SM CLR 22/17 A2992 RMK AO2 SLP126 T02170172 53009
Observed Flight Rules
May-23 @ 02:55 UTC (33 minutes ago) Visual Flight Rules
Wind Visibility Clouds
130° at 5 knots 10 miles
  • Clear skies
Temperatures Readings
Current 22°C / 72°F
Dewpoint 17°C / 63°F
Humidity 73%
Altimeter 29.92" Hg
Pressure 1012.6 hPa
Elevation 390
METAR KHON 230255Z AUTO 13005KT 10SM CLR 22/17 A2992 RMK AO2 SLP126 T02170172 53009
Observed Flight Rules
May-23 @ 02:55 UTC
(33 minutes ago)
VFR
Wind Visibility
130° at 5 knots 10 miles
Clouds
  • Clear skies
Temperature Dewpoint
22°C / 72°F 17°C / 63°F
Humidity Altimeter Pressure
73% 29.92" Hg 1012.6 hPa